createdAt,value
2019-01-28T00:02:06.155Z,1.77
2019-01-28T00:04:34.597Z,1.75
2019-01-28T00:07:03.036Z,1.71
2019-01-28T00:09:31.500Z,1.69
2019-01-28T00:11:59.938Z,1.71
2019-01-28T00:14:28.375Z,1.69
2019-01-28T00:16:57.504Z,1.69
2019-01-28T00:19:26.459Z,1.72
2019-01-28T00:21:55.174Z,1.77
2019-01-28T00:24:23.889Z,1.72
2019-01-28T00:26:52.331Z,1.67
2019-01-28T00:29:21.017Z,1.66
2019-01-28T00:31:49.453Z,1.66
2019-01-28T00:34:18.156Z,1.71
2019-01-28T00:36:46.582Z,1.66
2019-01-28T00:39:15.021Z,1.66
2019-01-28T00:41:43.446Z,1.66
2019-01-28T00:44:12.210Z,1.65
2019-01-28T00:46:41.205Z,1.64
2019-01-28T00:49:09.997Z,1.62
2019-01-28T00:51:38.425Z,1.66
2019-01-28T00:54:08.984Z,1.63
2019-01-28T00:56:37.407Z,1.60
2019-01-28T00:59:06.171Z,1.63
2019-01-28T01:01:34.855Z,1.62
2019-01-28T01:04:03.647Z,1.60
2019-01-28T01:06:32.066Z,1.58
2019-01-28T01:09:00.824Z,1.63
2019-01-28T01:11:31.380Z,1.64
2019-01-28T01:14:00.126Z,1.61
2019-01-28T01:16:28.556Z,1.63
2019-01-28T01:18:57.290Z,1.66
2019-01-28T01:21:25.953Z,1.62
2019-01-28T01:23:54.386Z,1.62
2019-01-28T01:26:23.161Z,1.61
2019-01-28T01:28:51.588Z,1.55
2019-01-28T01:31:20.023Z,1.52
2019-01-28T01:33:48.445Z,1.48
2019-01-28T01:36:17.175Z,1.41
2019-01-28T01:38:45.598Z,1.37
2019-01-28T01:41:14.037Z,1.35
2019-01-28T01:43:42.469Z,1.38
2019-01-28T01:46:11.504Z,1.36
2019-01-28T01:48:40.495Z,1.37
2019-01-28T01:51:08.934Z,1.38
2019-01-28T01:53:37.376Z,1.42
2019-01-28T01:56:05.800Z,1.40
2019-01-28T01:58:34.222Z,1.36
2019-01-28T02:01:02.663Z,1.38
2019-01-28T02:03:31.483Z,1.41
2019-01-28T02:06:00.275Z,1.47
2019-01-28T02:08:29.022Z,1.49
2019-01-28T02:10:57.469Z,1.51
2019-01-28T02:13:26.288Z,1.49
2019-01-28T02:15:55.017Z,1.55
2019-01-28T02:18:24.130Z,1.60
2019-01-28T02:20:52.552Z,1.60
2019-01-28T02:23:21.057Z,1.57
2019-01-28T02:25:49.507Z,1.56
2019-01-28T02:28:18.245Z,1.58
2019-01-28T02:30:46.669Z,1.58
2019-01-28T02:33:15.416Z,1.64
2019-01-28T02:35:43.856Z,1.68
2019-01-28T02:38:12.288Z,1.72
2019-01-28T02:40:40.982Z,1.69
2019-01-28T02:43:09.407Z,1.67
2019-01-28T02:45:37.838Z,1.66
2019-01-28T02:48:06.286Z,1.64
2019-01-28T02:50:34.722Z,1.64
2019-01-28T02:53:03.458Z,1.58
2019-01-28T02:55:32.243Z,1.57
2019-01-28T02:58:00.676Z,1.58
2019-01-28T03:00:29.088Z,1.52
2019-01-28T03:02:57.527Z,1.44
2019-01-28T03:05:25.972Z,1.39
2019-01-28T03:07:54.403Z,1.37
2019-01-28T03:10:23.310Z,1.34
2019-01-28T03:12:51.777Z,1.33
2019-01-28T03:15:20.475Z,1.34
2019-01-28T03:17:48.912Z,1.31
2019-01-28T03:20:18.172Z,1.28
2019-01-28T03:22:46.970Z,1.29
2019-01-28T03:25:15.752Z,1.24
2019-01-28T03:27:44.200Z,1.25
2019-01-28T03:30:14.680Z,1.23
2019-01-28T03:32:43.445Z,1.22
2019-01-28T03:35:11.857Z,1.25
2019-01-28T03:37:40.304Z,1.24
2019-01-28T03:40:11.658Z,1.23
2019-01-28T03:42:40.100Z,1.24
2019-01-28T03:45:11.540Z,1.21
2019-01-28T03:47:40.272Z,1.20
2019-01-28T03:50:09.679Z,1.21
2019-01-28T03:52:38.114Z,1.20
2019-01-28T03:55:07.306Z,1.20
2019-01-28T03:57:35.744Z,1.18
2019-01-28T04:00:05.169Z,1.19
2019-01-28T04:02:33.604Z,1.19
2019-01-28T04:05:02.030Z,1.21
2019-01-28T04:07:30.481Z,1.22
2019-01-28T04:09:59.268Z,1.25
2019-01-28T04:12:27.707Z,1.26
2019-01-28T04:14:56.186Z,1.31
2019-01-28T04:17:24.626Z,1.30
2019-01-28T04:19:53.070Z,1.30
2019-01-28T04:22:21.507Z,1.30
2019-01-28T04:24:49.948Z,1.29
2019-01-28T04:27:18.390Z,1.26
2019-01-28T04:29:46.824Z,1.29
2019-01-28T04:32:15.516Z,1.28
2019-01-28T04:34:44.238Z,1.30
2019-01-28T04:37:14.862Z,1.26
2019-01-28T04:39:43.299Z,1.29
2019-01-28T04:42:12.073Z,1.30
2019-01-28T04:44:40.769Z,1.33
2019-01-28T04:47:10.281Z,1.32
2019-01-28T04:49:38.714Z,1.34
2019-01-28T04:52:07.129Z,1.33
2019-01-28T04:54:35.569Z,1.33
2019-01-28T04:57:03.998Z,1.30
2019-01-28T04:59:32.777Z,1.29
2019-01-28T05:02:01.460Z,1.29
2019-01-28T05:04:29.900Z,1.25
2019-01-28T05:06:58.329Z,1.30
2019-01-28T05:09:27.099Z,1.32
2019-01-28T05:11:57.604Z,1.35
2019-01-28T05:14:26.317Z,1.35
2019-01-28T05:16:55.309Z,1.32
2019-01-28T05:19:23.748Z,1.32
2019-01-28T05:21:52.427Z,1.28
2019-01-28T05:24:20.892Z,1.26
2019-01-28T05:26:49.312Z,1.26
2019-01-28T05:29:17.749Z,1.31
2019-01-28T05:31:46.497Z,1.29
2019-01-28T05:34:15.281Z,1.32
2019-01-28T05:36:43.707Z,1.33
2019-01-28T05:39:12.205Z,1.34
2019-01-28T05:41:40.630Z,1.40
2019-01-28T05:44:09.061Z,1.39
2019-01-28T05:46:37.486Z,1.40
2019-01-28T05:49:06.215Z,1.37
2019-01-28T05:51:34.640Z,1.35
2019-01-28T05:54:03.085Z,1.36
2019-01-28T05:56:32.085Z,1.32
2019-01-28T05:59:00.797Z,1.30
2019-01-28T06:01:29.223Z,1.34
2019-01-28T06:03:57.942Z,1.33
2019-01-28T06:06:26.663Z,1.30
2019-01-28T06:08:55.111Z,1.29
2019-01-28T06:11:23.834Z,1.24
2019-01-28T06:13:52.924Z,1.17
2019-01-28T06:16:21.606Z,1.11
2019-01-28T06:18:50.094Z,1.10
2019-01-28T06:21:18.527Z,1.06
2019-01-28T06:23:46.998Z,1.01
2019-01-28T06:26:15.434Z,1.00
2019-01-28T06:28:44.222Z,1.01
2019-01-28T06:31:12.657Z,0.97
2019-01-28T06:33:41.085Z,0.96
2019-01-28T06:36:09.801Z,0.95
2019-01-28T06:38:38.556Z,0.94
2019-01-28T06:41:06.997Z,0.92
2019-01-28T06:43:36.288Z,0.92
2019-01-28T06:46:05.021Z,0.89
2019-01-28T06:48:33.705Z,0.83
2019-01-28T06:51:02.136Z,0.76
2019-01-28T06:53:30.569Z,0.74
2019-01-28T06:55:59.003Z,0.71
2019-01-28T06:58:27.415Z,0.73
2019-01-28T07:00:55.854Z,0.74
2019-01-28T07:03:24.583Z,0.71
2019-01-28T07:05:53.070Z,0.73
2019-01-28T07:08:21.494Z,0.72
2019-01-28T07:10:50.284Z,0.68
2019-01-28T07:13:18.845Z,0.62
2019-01-28T07:15:47.335Z,0.60
2019-01-28T07:18:16.253Z,0.56
2019-01-28T07:20:44.705Z,0.54
2019-01-28T07:23:13.142Z,0.53
2019-01-28T07:25:41.850Z,0.52
2019-01-28T07:28:10.520Z,0.52
2019-01-28T07:30:39.316Z,0.56
2019-01-28T07:33:07.739Z,0.59
2019-01-28T07:35:37.295Z,0.59
2019-01-28T07:38:05.984Z,0.59
2019-01-28T07:40:34.434Z,0.55
2019-01-28T07:43:02.848Z,0.52
2019-01-28T07:45:33.469Z,0.45
2019-01-28T07:48:03.179Z,0.44
2019-01-28T07:50:31.752Z,0.42
2019-01-28T07:53:00.447Z,0.40
2019-01-28T07:55:28.879Z,0.41
2019-01-28T07:57:57.320Z,0.45
2019-01-28T08:00:26.742Z,0.49
2019-01-28T08:02:55.491Z,0.51
2019-01-28T08:05:24.185Z,0.51
2019-01-28T08:07:52.623Z,0.51
2019-01-28T08:10:21.091Z,0.50
2019-01-28T08:12:49.567Z,0.50
2019-01-28T08:15:19.263Z,0.49
2019-01-28T08:17:48.429Z,0.48
2019-01-28T08:20:18.074Z,0.47
2019-01-28T08:22:46.530Z,0.45
2019-01-28T08:25:16.187Z,0.47
2019-01-28T08:27:44.921Z,0.47
2019-01-28T08:30:19.339Z,0.45
2019-01-28T08:32:48.147Z,0.43
2019-01-28T08:35:16.843Z,0.40
2019-01-28T08:37:45.277Z,0.36
2019-01-28T08:40:14.301Z,0.35
2019-01-28T08:42:42.732Z,0.31
2019-01-28T08:45:11.402Z,0.28
2019-01-28T08:47:39.845Z,0.29
2019-01-28T08:50:10.376Z,0.28
2019-01-28T08:52:38.805Z,0.32
2019-01-28T08:55:14.317Z,0.35
2019-01-28T08:57:39.792Z,0.36
2019-01-28T09:00:11.872Z,0.39
2019-01-28T09:02:39.584Z,0.38
2019-01-28T09:05:08.918Z,0.42
2019-01-28T09:07:37.747Z,0.45
2019-01-28T09:10:06.951Z,0.48
2019-01-28T09:12:35.697Z,0.56
2019-01-28T09:15:04.723Z,0.64
2019-01-28T09:17:33.163Z,0.61
2019-01-28T09:20:01.575Z,0.62
2019-01-28T09:22:30.639Z,0.63
2019-01-28T09:24:59.065Z,0.64
2019-01-28T09:27:27.502Z,0.65
2019-01-28T09:29:56.201Z,0.68
2019-01-28T09:32:24.633Z,0.71
2019-01-28T09:34:53.656Z,0.74
2019-01-28T09:37:22.100Z,0.77
2019-01-28T09:39:50.523Z,0.84
2019-01-28T09:42:18.946Z,0.87
2019-01-28T09:44:47.688Z,0.91
2019-01-28T09:47:16.429Z,0.91
2019-01-28T09:49:44.869Z,0.94
2019-01-28T09:52:13.533Z,0.98
2019-01-28T09:54:43.634Z,0.99
2019-01-28T09:57:12.440Z,1.01
2019-01-28T09:59:40.862Z,1.00
2019-01-28T10:02:09.609Z,1.00
2019-01-28T10:04:38.041Z,0.99
2019-01-28T10:07:06.728Z,1.00
2019-01-28T10:09:35.554Z,1.00
2019-01-28T10:12:04.031Z,1.01
2019-01-28T10:14:32.473Z,1.01
2019-01-28T10:17:01.413Z,1.03
2019-01-28T10:19:30.518Z,1.07
2019-01-28T10:21:58.951Z,1.07
2019-01-28T10:24:27.382Z,1.02
2019-01-28T10:26:55.801Z,1.12
2019-01-28T10:29:24.248Z,1.13
2019-01-28T10:31:52.970Z,1.18
2019-01-28T10:34:21.401Z,1.21
2019-01-28T10:36:50.205Z,1.23
2019-01-28T10:39:18.969Z,1.26
2019-01-28T10:41:47.401Z,1.28
2019-01-28T10:44:15.837Z,1.32
2019-01-28T10:46:44.522Z,1.37
2019-01-28T10:49:13.313Z,1.33
2019-01-28T10:51:41.724Z,1.34
2019-01-28T10:54:10.406Z,1.33
2019-01-28T10:56:38.830Z,1.27
2019-01-28T10:59:07.431Z,1.29
2019-01-28T11:01:35.864Z,1.33
2019-01-28T11:04:04.600Z,1.33
2019-01-28T11:06:33.099Z,1.35
2019-01-28T11:09:02.196Z,1.37
2019-01-28T11:11:30.615Z,1.34
2019-01-28T11:13:59.146Z,1.35
2019-01-28T11:16:27.558Z,1.30
2019-01-28T11:18:57.863Z,1.28
2019-01-28T11:21:26.215Z,1.30
2019-01-28T11:23:54.696Z,1.31
2019-01-28T11:26:23.205Z,1.31
2019-01-28T11:28:51.606Z,1.30
2019-01-28T11:31:20.174Z,1.23
2019-01-28T11:33:48.854Z,1.26
2019-01-28T11:36:17.357Z,1.32
2019-01-28T11:38:45.918Z,1.39
2019-01-28T11:41:14.743Z,1.46
2019-01-28T11:43:43.161Z,1.45
2019-01-28T11:46:11.563Z,1.49
2019-01-28T11:48:40.456Z,1.47
2019-01-28T11:51:09.118Z,1.49
2019-01-28T11:53:37.557Z,1.52
2019-01-28T11:56:05.991Z,1.49
2019-01-28T11:58:34.414Z,1.52
2019-01-28T12:01:11.527Z,1.59
2019-01-28T12:03:40.322Z,1.55
2019-01-28T12:06:08.767Z,1.58
2019-01-28T12:11:28.898Z,1.57
2019-01-28T12:13:57.304Z,1.57
2019-01-28T12:16:25.758Z,1.56
2019-01-28T12:18:54.179Z,1.57
2019-01-28T12:21:22.618Z,1.53
2019-01-28T12:23:51.278Z,1.52
2019-01-28T12:26:19.710Z,1.58
2019-01-28T12:28:48.371Z,1.56
2019-01-28T12:31:17.251Z,1.48
2019-01-28T12:33:46.760Z,1.48
2019-01-28T12:36:15.252Z,1.55
2019-01-28T12:38:43.936Z,1.66
2019-01-28T12:41:17.325Z,1.63
2019-01-28T12:43:42.916Z,1.65
2019-01-28T12:46:11.352Z,1.63
2019-01-28T12:48:39.812Z,1.61
2019-01-28T12:51:08.492Z,1.52
2019-01-28T12:53:37.654Z,1.52
2019-01-28T12:56:06.481Z,1.50
2019-01-28T12:58:34.914Z,1.45
2019-01-28T13:01:05.186Z,1.52
2019-01-28T13:03:33.610Z,1.51
2019-01-28T13:06:02.350Z,1.46
2019-01-28T13:08:31.149Z,1.45
2019-01-28T13:10:59.601Z,1.54
2019-01-28T13:13:28.295Z,1.54
2019-01-28T13:15:56.992Z,1.60
2019-01-28T13:18:25.977Z,1.54
2019-01-28T13:20:54.405Z,1.55
2019-01-28T13:23:23.147Z,1.58
2019-01-28T13:25:51.571Z,1.58
2019-01-28T13:28:20.007Z,1.54
2019-01-28T13:30:48.431Z,1.61
2019-01-28T13:33:17.445Z,1.64
2019-01-28T13:35:46.169Z,1.69
2019-01-28T13:38:14.750Z,1.71
2019-01-28T13:40:43.437Z,1.71
2019-01-28T13:43:11.933Z,1.73
2019-01-28T13:45:40.374Z,1.70
2019-01-28T13:48:12.586Z,1.70
2019-01-28T13:50:41.352Z,1.66
2019-01-28T13:53:10.101Z,1.62
2019-01-28T13:55:38.537Z,1.53
2019-01-28T13:58:06.968Z,1.47
2019-01-28T14:00:35.380Z,1.42
2019-01-28T14:03:03.860Z,1.43
2019-01-28T14:05:32.559Z,1.43
2019-01-28T14:08:01.009Z,1.33
2019-01-28T14:10:29.469Z,1.31
2019-01-28T14:12:57.912Z,1.29
2019-01-28T14:15:29.073Z,1.28
2019-01-28T14:17:57.814Z,1.27
2019-01-28T14:20:29.557Z,1.32
2019-01-28T14:22:58.322Z,1.32
2019-01-28T14:25:26.762Z,1.37
2019-01-28T14:27:55.395Z,1.35
2019-01-28T14:30:41.743Z,1.33
2019-01-28T14:33:10.221Z,1.33
2019-01-28T14:35:39.499Z,1.31
2019-01-28T14:38:09.138Z,1.31
2019-01-28T14:40:38.588Z,1.31
2019-01-28T14:43:07.029Z,1.42
2019-01-28T14:45:35.603Z,1.40
2019-01-28T14:48:04.179Z,1.39
2019-01-28T14:50:32.969Z,1.40
2019-01-28T14:53:02.039Z,1.45
2019-01-28T14:55:30.484Z,1.47
2019-01-28T14:57:59.015Z,1.51
2019-01-28T15:00:32.875Z,1.52
2019-01-28T15:03:01.306Z,1.54
2019-01-28T15:05:29.828Z,1.56
2019-01-28T15:07:58.344Z,1.57
2019-01-28T15:10:26.911Z,1.61
2019-01-28T15:12:55.586Z,1.62
2019-01-28T15:15:29.558Z,1.58
2019-01-28T15:18:01.417Z,1.60
2019-01-28T15:20:29.860Z,1.62
2019-01-28T15:22:59.581Z,1.61
2019-01-28T15:25:28.470Z,1.67
2019-01-28T15:27:56.924Z,1.70
2019-01-28T15:30:27.004Z,1.71
2019-01-28T15:32:55.494Z,1.73
2019-01-28T15:35:23.950Z,1.73
2019-01-28T15:37:52.368Z,1.74
2019-01-28T15:40:23.079Z,1.76
2019-01-28T15:42:51.518Z,1.72
2019-01-28T15:45:22.351Z,1.73
2019-01-28T15:47:51.098Z,1.71
2019-01-28T15:50:19.623Z,1.73
2019-01-28T15:52:48.049Z,1.73
2019-01-28T15:55:22.408Z,1.76
2019-01-28T15:57:51.215Z,1.74
2019-01-28T16:00:22.457Z,1.73
2019-01-28T16:02:50.981Z,1.73
2019-01-28T16:05:20.145Z,1.70
2019-01-28T16:07:48.563Z,1.66
2019-01-28T16:10:17.381Z,1.65
2019-01-28T16:12:45.871Z,1.58
2019-01-28T16:15:23.225Z,1.47
2019-01-28T16:17:51.692Z,1.37
2019-01-28T16:20:20.540Z,1.30
2019-01-28T16:22:49.119Z,1.21
2019-01-28T16:25:17.501Z,1.15
2019-01-28T16:27:45.939Z,1.00
2019-01-28T16:30:17.060Z,0.95
2019-01-28T16:32:45.485Z,0.86
2019-01-28T16:35:14.834Z,0.76
2019-01-28T16:37:43.257Z,0.70
2019-01-28T16:40:13.889Z,0.64
2019-01-28T16:42:42.343Z,0.59
2019-01-28T16:45:12.145Z,0.51
2019-01-28T16:47:40.575Z,0.52
2019-01-28T16:50:10.445Z,0.44
2019-01-28T16:52:39.128Z,0.42
2019-01-28T16:55:08.918Z,0.41
2019-01-28T16:57:38.001Z,0.39
2019-01-28T17:00:09.571Z,0.39
2019-01-28T17:02:37.995Z,0.39
2019-01-28T17:05:07.452Z,0.39
2019-01-28T17:07:36.364Z,0.35
2019-01-28T17:10:06.719Z,0.36
2019-01-28T17:12:35.259Z,0.38
2019-01-28T17:15:04.424Z,0.34
2019-01-28T17:17:33.628Z,0.29
2019-01-28T17:20:02.045Z,0.27
2019-01-28T17:22:30.503Z,0.26
2019-01-28T17:24:58.923Z,0.26
2019-01-28T17:27:27.649Z,0.25
2019-01-28T17:29:56.079Z,0.24
2019-01-28T17:32:24.514Z,0.23
2019-01-28T17:34:52.944Z,0.23
2019-01-28T17:37:21.671Z,0.23
2019-01-28T17:39:50.092Z,0.24
2019-01-28T17:42:18.524Z,0.21
2019-01-28T17:44:46.957Z,0.20
2019-01-28T17:47:16.006Z,0.20
2019-01-28T17:49:44.441Z,0.19
2019-01-28T17:52:12.872Z,0.19
2019-01-28T17:54:41.959Z,0.19
2019-01-28T17:57:10.399Z,0.21
2019-01-28T17:59:38.825Z,0.21
2019-01-28T18:02:07.255Z,0.24
2019-01-28T18:04:36.011Z,0.22
2019-01-28T18:07:04.460Z,0.21
2019-01-28T18:09:32.892Z,0.19
2019-01-28T18:12:01.381Z,0.18
2019-01-28T18:14:29.887Z,0.18
2019-01-28T18:16:58.593Z,0.17
2019-01-28T18:19:27.998Z,0.14
2019-01-28T18:21:56.801Z,0.14
2019-01-28T18:24:25.234Z,0.14
2019-01-28T18:26:53.790Z,0.15
2019-01-28T18:29:22.742Z,0.13
2019-01-28T18:31:51.424Z,0.12
2019-01-28T18:34:19.855Z,0.13
2019-01-28T18:36:48.596Z,0.14
2019-01-28T18:39:17.355Z,0.13
2019-01-28T18:41:46.014Z,0.18
2019-01-28T18:44:14.479Z,0.17
2019-01-28T18:46:42.925Z,0.17
2019-01-28T18:49:11.410Z,0.14
2019-01-28T18:51:41.138Z,0.11
2019-01-28T18:54:09.576Z,0.11
2019-01-28T18:56:38.345Z,0.10
2019-01-28T18:59:07.088Z,0.07
2019-01-28T19:01:35.528Z,0.08
2019-01-28T19:04:04.241Z,0.08
2019-01-28T19:06:48.175Z,0.07
2019-01-28T19:09:21.678Z,0.10
2019-01-28T19:12:07.873Z,0.07
2019-01-28T19:14:57.759Z,0.07
2019-01-28T19:17:38.244Z,0.07
2019-01-28T19:20:22.506Z,0.05
2019-01-28T19:22:51.263Z,0.03
2019-01-28T19:25:19.700Z,0.04
2019-01-28T19:27:48.138Z,0.02
2019-01-28T19:30:18.790Z,0.00
2019-01-28T19:32:47.509Z,0.02
2019-01-28T19:35:15.969Z,0.00
2019-01-28T19:37:47.074Z,-0.01
2019-01-28T19:40:15.889Z,-0.03
2019-01-28T19:42:44.316Z,-0.03
2019-01-28T19:45:15.612Z,-0.04
2019-01-28T19:47:44.367Z,-0.06
2019-01-28T19:50:16.196Z,-0.08
2019-01-28T19:52:44.708Z,-0.09
2019-01-28T19:55:13.459Z,-0.09
2019-01-28T19:57:42.197Z,-0.10
2019-01-28T20:00:19.763Z,-0.10
2019-01-28T20:02:48.222Z,-0.11
2019-01-28T20:05:16.699Z,-0.10
2019-01-28T20:07:45.428Z,-0.11
2019-01-28T20:10:14.019Z,-0.10
2019-01-28T20:12:42.446Z,-0.12
2019-01-28T20:15:12.679Z,-0.16
2019-01-28T20:17:41.259Z,-0.17
2019-01-28T20:20:11.615Z,-0.15
2019-01-28T20:22:40.100Z,-0.13
2019-01-28T20:25:10.106Z,-0.11
2019-01-28T20:27:38.970Z,-0.14
2019-01-28T20:30:11.657Z,-0.12
2019-01-28T20:32:40.149Z,-0.09
2019-01-28T20:35:09.536Z,-0.08
2019-01-28T20:37:38.083Z,-0.11
2019-01-28T20:40:08.672Z,-0.11
2019-01-28T20:42:39.647Z,-0.11
2019-01-28T20:45:09.783Z,-0.10
2019-01-28T20:47:38.301Z,-0.10
2019-01-28T20:50:10.245Z,-0.13
2019-01-28T20:52:38.694Z,-0.12
2019-01-28T20:55:07.562Z,-0.16
2019-01-28T20:57:36.059Z,-0.18
2019-01-28T21:00:07.188Z,-0.17
2019-01-28T21:02:37.771Z,-0.20
2019-01-28T21:05:08.167Z,-0.24
2019-01-28T21:07:36.660Z,-0.28
2019-01-28T21:10:07.251Z,-0.31
2019-01-28T21:12:35.705Z,-0.30
2019-01-28T21:15:04.707Z,-0.27
2019-01-28T21:17:33.310Z,-0.25
2019-01-28T21:20:02.009Z,-0.29
2019-01-28T21:22:30.751Z,-0.29
2019-01-28T21:24:59.507Z,-0.34
2019-01-28T21:27:27.940Z,-0.35
2019-01-28T21:29:56.721Z,-0.35
2019-01-28T21:32:26.125Z,-0.39
2019-01-28T21:34:54.920Z,-0.43
2019-01-28T21:37:30.142Z,-0.47
2019-01-28T21:39:58.983Z,-0.51
2019-01-28T21:42:27.444Z,-0.56
2019-01-28T21:44:56.306Z,-0.62
2019-01-28T21:47:24.838Z,-0.63
2019-01-28T21:49:55.224Z,-0.66
2019-01-28T21:52:24.018Z,-0.68
2019-01-28T21:54:52.812Z,-0.69
2019-01-28T21:57:21.581Z,-0.62
2019-01-28T21:59:50.051Z,-0.62
2019-01-28T22:02:18.497Z,-0.65
2019-01-28T22:04:46.956Z,-0.72
2019-01-28T22:07:15.468Z,-0.78
2019-01-28T22:09:43.980Z,-0.82
2019-01-28T22:12:15.362Z,-0.84
2019-01-28T22:14:44.753Z,-0.84
2019-01-28T22:17:13.240Z,-0.82
2019-01-28T22:19:41.813Z,-0.81
2019-01-28T22:22:12.597Z,-0.79
2019-01-28T22:24:41.842Z,-2.64
2019-01-28T22:27:10.333Z,-0.76
2019-01-28T22:29:39.516Z,-0.76
2019-01-28T22:32:08.104Z,-0.76
2019-01-28T22:34:36.835Z,-0.80
2019-01-28T22:37:05.439Z,-0.80
2019-01-28T22:39:34.035Z,-0.79
2019-01-28T22:42:02.610Z,-0.79
2019-01-28T22:44:31.149Z,-0.75
2019-01-28T22:46:59.749Z,-0.69
2019-01-28T22:49:28.291Z,-0.63
2019-01-28T22:51:56.859Z,-0.60
2019-01-28T22:54:25.714Z,-0.62
2019-01-28T22:56:54.768Z,-0.62
2019-01-28T22:59:23.292Z,-0.62
2019-01-28T23:01:51.752Z,-0.60
2019-01-28T23:04:20.214Z,-0.59
2019-01-28T23:06:48.666Z,-0.56
2019-01-28T23:09:17.456Z,-0.54
2019-01-28T23:11:45.943Z,-0.52
2019-01-28T23:14:14.718Z,-0.47
2019-01-28T23:16:43.427Z,-0.47
2019-01-28T23:19:12.196Z,-0.45
2019-01-28T23:21:40.660Z,-0.44
2019-01-28T23:24:09.120Z,-0.45
2019-01-28T23:26:37.866Z,-0.46
2019-01-28T23:29:06.319Z,-0.41
2019-01-28T23:31:35.158Z,-0.43
2019-01-28T23:34:03.899Z,-0.44
2019-01-28T23:36:32.447Z,-0.42
2019-01-28T23:39:01.174Z,-0.42
2019-01-28T23:41:30.212Z,-0.40
2019-01-28T23:43:58.946Z,-0.40
2019-01-28T23:46:27.739Z,-0.40
2019-01-28T23:48:56.488Z,-0.34
2019-01-28T23:51:24.927Z,-0.35
2019-01-28T23:53:53.356Z,-0.36
2019-01-28T23:56:21.797Z,-0.38
2019-01-28T23:58:50.556Z,-0.36
